createdAt,value
2022-11-16T00:02:13.716Z,87.50
2022-11-16T00:04:42.596Z,87.97
2022-11-16T00:07:11.460Z,87.80
2022-11-16T00:09:39.382Z,87.75
2022-11-16T00:12:09.527Z,87.09
2022-11-16T00:14:38.276Z,87.25
2022-11-16T00:17:06.476Z,87.13
2022-11-16T00:19:35.691Z,87.46
2022-11-16T00:22:03.826Z,87.52
2022-11-16T00:24:31.761Z,87.30
2022-11-16T00:26:59.932Z,87.78
2022-11-16T00:29:28.049Z,88.14
2022-11-16T00:31:56.372Z,88.36
2022-11-16T00:34:24.871Z,88.88
2022-11-16T00:36:54.455Z,88.86
2022-11-16T00:39:22.493Z,89.61
2022-11-16T00:41:50.943Z,89.55
2022-11-16T00:44:18.986Z,89.20
2022-11-16T00:46:47.182Z,89.86
2022-11-16T00:49:15.270Z,89.22
2022-11-16T00:51:43.479Z,89.56
2022-11-16T00:54:13.486Z,89.89
2022-11-16T00:56:41.913Z,90.36
2022-11-16T00:59:09.803Z,90.94
2022-11-16T01:01:38.118Z,90.48
2022-11-16T01:04:07.463Z,90.55
2022-11-16T01:06:37.305Z,90.68
2022-11-16T01:09:05.249Z,90.26
2022-11-16T01:11:52.671Z,90.92
2022-11-16T01:14:20.601Z,90.73
2022-11-16T01:16:50.271Z,90.95
2022-11-16T01:19:18.241Z,90.55
2022-11-16T01:21:46.382Z,90.66
2022-11-16T01:24:14.274Z,90.23
2022-11-16T01:26:43.819Z,90.60
2022-11-16T01:29:11.726Z,90.41
2022-11-16T01:31:44.291Z,90.27
2022-11-16T01:34:12.228Z,91.04
2022-11-16T01:36:40.624Z,91.02
2022-11-16T01:39:08.627Z,91.13
2022-11-16T01:41:49.505Z,91.14
2022-11-16T01:44:56.588Z,91.62
2022-11-16T01:47:24.885Z,92.78
2022-11-16T01:49:57.740Z,93.40
2022-11-16T01:52:32.668Z,93.47
2022-11-16T01:55:01.476Z,93.76
2022-11-16T01:57:42.193Z,93.92
2022-11-16T02:00:12.564Z,94.60
2022-11-16T02:02:51.812Z,95.13
2022-11-16T02:05:46.866Z,95.05
2022-11-16T02:08:41.751Z,95.93
2022-11-16T02:11:27.650Z,95.54
2022-11-16T02:14:05.048Z,95.82
2022-11-16T02:16:38.798Z,95.67
2022-11-16T02:19:20.498Z,95.75
2022-11-16T02:21:53.087Z,96.24
2022-11-16T02:24:36.185Z,95.52
2022-11-16T02:27:32.603Z,95.80
2022-11-16T02:30:02.568Z,95.93
2022-11-16T02:32:33.120Z,95.71
2022-11-16T02:35:04.696Z,95.85
2022-11-16T02:37:35.497Z,95.96
2022-11-16T02:40:07.821Z,95.84
2022-11-16T02:42:39.086Z,96.18
2022-11-16T02:45:11.312Z,96.84
2022-11-16T02:47:42.704Z,97.54
2022-11-16T02:50:13.710Z,98.57
2022-11-16T02:52:41.688Z,98.90
2022-11-16T02:55:12.768Z,99.05
2022-11-16T02:57:49.953Z,99.39
2022-11-16T03:00:22.760Z,99.97
2022-11-16T03:03:00.037Z,99.49
2022-11-16T03:05:35.349Z,98.89
2022-11-16T03:08:13.478Z,99.85
2022-11-16T03:11:00.541Z,100.00
2022-11-16T03:13:31.480Z,99.73
2022-11-16T03:16:02.108Z,99.25
2022-11-16T03:18:30.290Z,99.08
2022-11-16T03:21:07.459Z,98.83
2022-11-16T03:23:35.519Z,98.55
2022-11-16T03:26:07.123Z,98.74
2022-11-16T03:28:38.103Z,98.67
2022-11-16T03:31:12.689Z,98.16
2022-11-16T03:33:44.549Z,98.24
2022-11-16T03:36:17.152Z,98.13
2022-11-16T03:38:46.616Z,98.17
2022-11-16T03:41:15.927Z,98.22
2022-11-16T03:43:45.006Z,98.60
2022-11-16T03:46:16.666Z,98.28
2022-11-16T03:48:46.381Z,97.93
2022-11-16T03:51:22.848Z,98.01
2022-11-16T03:53:50.784Z,97.54
2022-11-16T03:56:19.660Z,98.01
2022-11-16T03:58:48.200Z,99.12
2022-11-16T04:01:17.729Z,98.24
2022-11-16T04:03:47.155Z,98.24
2022-11-16T04:06:35.995Z,98.02
2022-11-16T04:09:21.561Z,97.56
2022-11-16T04:12:08.266Z,97.93
2022-11-16T04:14:55.299Z,97.85
2022-11-16T04:17:46.184Z,97.59
2022-11-16T04:20:33.580Z,98.29
2022-11-16T04:23:27.754Z,97.86
2022-11-16T04:25:56.627Z,98.04
2022-11-16T04:28:27.241Z,98.04
2022-11-16T04:31:17.517Z,98.79
2022-11-16T04:34:20.200Z,99.75
2022-11-16T04:37:09.857Z,99.45
2022-11-16T04:39:38.585Z,99.69
2022-11-16T04:42:15.341Z,99.67
2022-11-16T04:45:02.950Z,99.41
2022-11-16T04:47:37.600Z,98.99
2022-11-16T04:50:08.099Z,100.00
2022-11-16T04:52:36.186Z,100.00
2022-11-16T04:55:06.602Z,99.35
2022-11-16T04:57:34.594Z,99.73
2022-11-16T05:00:03.026Z,100.00
2022-11-16T05:02:31.520Z,99.85
2022-11-16T05:05:00.430Z,100.00
2022-11-16T05:07:31.748Z,100.00
2022-11-16T05:10:08.856Z,100.00
2022-11-16T05:12:37.116Z,100.00
2022-11-16T05:15:08.638Z,100.00
2022-11-16T05:17:36.766Z,100.00
2022-11-16T05:20:28.063Z,100.00
2022-11-16T05:23:02.350Z,100.00
2022-11-16T05:25:36.746Z,100.00
2022-11-16T05:28:08.132Z,100.00
2022-11-16T05:30:40.577Z,100.00
2022-11-16T05:33:08.789Z,100.00
2022-11-16T05:35:41.145Z,100.00
2022-11-16T05:38:10.825Z,100.00
2022-11-16T05:40:43.635Z,100.00
2022-11-16T05:43:11.960Z,100.00
2022-11-16T05:45:47.206Z,100.00
2022-11-16T05:48:16.838Z,100.00
2022-11-16T05:50:45.347Z,100.00
2022-11-16T05:53:21.923Z,100.00
2022-11-16T05:55:50.434Z,100.00
2022-11-16T05:58:19.703Z,100.00
2022-11-16T06:00:50.968Z,100.00
2022-11-16T06:03:20.511Z,100.00
2022-11-16T06:05:57.109Z,100.00
2022-11-16T06:08:28.528Z,100.00
2022-11-16T06:11:02.499Z,100.00
2022-11-16T06:13:30.856Z,100.00
2022-11-16T06:16:01.481Z,100.00
2022-11-16T06:18:31.853Z,100.00
2022-11-16T06:21:00.266Z,100.00
2022-11-16T06:23:29.524Z,100.00
2022-11-16T06:25:58.095Z,100.00
2022-11-16T06:28:28.663Z,100.00
2022-11-16T06:30:57.298Z,100.00
2022-11-16T06:33:30.895Z,100.00
2022-11-16T06:36:02.101Z,100.00
2022-11-16T06:38:31.642Z,100.00
2022-11-16T06:41:01.326Z,100.00
2022-11-16T06:43:30.678Z,100.00
2022-11-16T06:45:59.254Z,100.00
2022-11-16T06:48:27.163Z,100.00
2022-11-16T06:50:55.833Z,100.00
2022-11-16T06:53:28.942Z,100.00
2022-11-16T06:56:04.034Z,100.00
2022-11-16T06:58:34.504Z,100.00
2022-11-16T07:01:07.489Z,100.00
2022-11-16T07:03:36.296Z,100.00
2022-11-16T07:06:10.076Z,100.00
2022-11-16T07:08:39.293Z,100.00
2022-11-16T07:11:10.504Z,100.00
2022-11-16T07:13:39.653Z,100.00
2022-11-16T07:16:11.937Z,100.00
2022-11-16T07:18:45.621Z,100.00
2022-11-16T07:21:16.115Z,100.00
2022-11-16T07:23:45.773Z,100.00
2022-11-16T07:26:21.667Z,100.00
2022-11-16T07:28:55.294Z,100.00
2022-11-16T07:31:25.014Z,100.00
2022-11-16T07:34:12.888Z,100.00
2022-11-16T07:36:47.358Z,100.00
2022-11-16T07:39:15.379Z,100.00
2022-11-16T07:41:46.939Z,100.00
2022-11-16T07:44:25.256Z,100.00
2022-11-16T07:47:06.033Z,100.00
2022-11-16T07:49:35.940Z,100.00
2022-11-16T07:52:11.970Z,100.00
2022-11-16T07:54:59.589Z,100.00
2022-11-16T07:57:30.580Z,100.00
2022-11-16T08:00:02.232Z,100.00
2022-11-16T08:02:41.594Z,100.00
2022-11-16T08:05:15.705Z,100.00
2022-11-16T08:07:43.994Z,100.00
2022-11-16T08:10:12.038Z,100.00
2022-11-16T08:12:42.571Z,100.00
2022-11-16T08:15:14.014Z,100.00
2022-11-16T08:17:42.530Z,100.00
2022-11-16T08:20:13.218Z,100.00
2022-11-16T08:22:42.264Z,100.00
2022-11-16T08:25:10.857Z,100.00
2022-11-16T08:27:43.304Z,100.00
2022-11-16T08:30:12.958Z,100.00
2022-11-16T08:32:42.653Z,100.00
2022-11-16T08:35:12.025Z,100.00
2022-11-16T08:37:40.370Z,100.00
2022-11-16T08:40:12.615Z,100.00
2022-11-16T08:42:43.960Z,100.00
2022-11-16T08:45:13.136Z,99.88
2022-11-16T08:47:42.522Z,99.83
2022-11-16T08:50:10.922Z,98.82
2022-11-16T08:52:39.477Z,98.78
2022-11-16T08:55:08.168Z,98.31
2022-11-16T08:57:36.350Z,97.25
2022-11-16T09:00:12.171Z,96.83
2022-11-16T09:02:40.362Z,97.48
2022-11-16T09:05:11.806Z,96.05
2022-11-16T09:07:40.903Z,95.16
2022-11-16T09:10:09.992Z,95.40
2022-11-16T09:12:38.696Z,93.90
2022-11-16T09:15:07.888Z,93.89
2022-11-16T09:17:37.353Z,91.86
2022-11-16T09:20:06.307Z,92.36
2022-11-16T09:22:34.437Z,90.17
2022-11-16T09:25:02.336Z,90.34
2022-11-16T09:27:30.567Z,90.22
2022-11-16T09:29:58.494Z,90.70
2022-11-16T09:32:26.650Z,90.90
2022-11-16T09:34:55.970Z,90.85
2022-11-16T09:37:24.172Z,91.28
2022-11-16T09:39:52.196Z,90.16
2022-11-16T09:42:32.459Z,89.97
2022-11-16T09:45:04.469Z,90.18
2022-11-16T09:47:42.618Z,89.73
2022-11-16T09:50:20.450Z,87.65
2022-11-16T09:52:50.421Z,86.47
2022-11-16T09:55:24.646Z,85.05
2022-11-16T09:57:53.809Z,85.04
2022-11-16T10:00:23.609Z,85.46
2022-11-16T10:03:00.437Z,85.44
2022-11-16T10:05:33.847Z,84.33
2022-11-16T10:08:05.813Z,84.43
2022-11-16T10:10:37.789Z,84.65
2022-11-16T10:13:13.261Z,84.06
2022-11-16T10:15:50.862Z,84.58
2022-11-16T10:18:31.651Z,84.76
2022-11-16T10:21:12.895Z,84.78
2022-11-16T10:23:50.746Z,84.98
2022-11-16T10:26:28.198Z,84.07
2022-11-16T10:29:18.922Z,83.03
2022-11-16T10:31:58.128Z,82.39
2022-11-16T10:34:27.079Z,82.48
2022-11-16T10:36:59.647Z,82.03
2022-11-16T10:39:28.390Z,81.45
2022-11-16T10:41:57.422Z,80.83
2022-11-16T10:44:33.843Z,79.21
2022-11-16T10:47:04.606Z,79.55
2022-11-16T10:49:39.856Z,79.83
2022-11-16T10:52:09.461Z,80.02
2022-11-16T10:54:41.445Z,80.19
2022-11-16T10:57:27.629Z,79.08
2022-11-16T10:59:57.673Z,77.51
2022-11-16T11:02:32.175Z,76.32
2022-11-16T11:05:06.517Z,74.32
2022-11-16T11:07:39.662Z,72.73
2022-11-16T11:10:29.895Z,72.17
2022-11-16T11:13:07.572Z,72.50
2022-11-16T11:15:35.842Z,72.18
2022-11-16T11:18:18.959Z,67.79
2022-11-16T11:20:50.170Z,66.61
2022-11-16T11:23:21.181Z,65.18
2022-11-16T11:25:52.484Z,65.69
2022-11-16T11:28:23.972Z,66.76
2022-11-16T11:30:54.933Z,68.10
2022-11-16T11:33:23.789Z,67.92
2022-11-16T11:35:58.750Z,68.70
2022-11-16T11:38:28.046Z,69.74
2022-11-16T11:40:59.091Z,70.03
2022-11-16T11:43:27.914Z,70.66
2022-11-16T11:46:01.282Z,70.53
2022-11-16T11:48:35.550Z,70.98
2022-11-16T11:51:10.508Z,71.26
2022-11-16T11:53:45.610Z,71.68
2022-11-16T11:56:15.190Z,71.11
2022-11-16T11:58:43.478Z,71.98
2022-11-16T12:01:32.810Z,71.68
2022-11-16T12:04:26.791Z,72.47
2022-11-16T12:07:00.846Z,72.70
2022-11-16T12:09:36.154Z,72.08
2022-11-16T12:12:16.978Z,72.12
2022-11-16T12:15:01.306Z,72.43
2022-11-16T12:17:37.193Z,72.59
2022-11-16T12:20:17.828Z,72.55
2022-11-16T12:23:15.115Z,72.15
2022-11-16T12:25:48.513Z,73.89
2022-11-16T12:28:24.861Z,65.76
2022-11-16T12:31:03.102Z,57.47
2022-11-16T12:33:40.107Z,58.68
2022-11-16T12:36:15.887Z,54.85
2022-11-16T12:38:52.100Z,55.03
2022-11-16T12:41:42.517Z,55.52
2022-11-16T12:44:12.111Z,53.54
2022-11-16T12:46:48.843Z,55.71
2022-11-16T12:49:29.875Z,56.74
2022-11-16T12:52:07.811Z,57.37
2022-11-16T12:55:19.211Z,58.18
2022-11-16T12:57:44.895Z,58.47
2022-11-16T13:00:14.791Z,58.48
2022-11-16T13:02:56.404Z,59.44
2022-11-16T13:05:26.503Z,60.03
2022-11-16T13:07:57.676Z,60.34
2022-11-16T13:10:28.354Z,60.94
2022-11-16T13:13:22.279Z,56.75
2022-11-16T13:15:50.272Z,55.28
2022-11-16T13:18:20.673Z,50.84
2022-11-16T13:20:54.044Z,49.24
2022-11-16T13:23:26.726Z,45.53
2022-11-16T13:26:02.045Z,48.04
2022-11-16T13:28:36.513Z,49.58
2022-11-16T13:31:09.563Z,50.65
2022-11-16T13:33:49.327Z,51.96
2022-11-16T13:36:45.164Z,53.10
2022-11-16T13:39:21.487Z,53.43
2022-11-16T13:41:51.647Z,49.26
2022-11-16T13:44:31.098Z,46.20
2022-11-16T13:47:04.245Z,43.20
2022-11-16T13:49:35.140Z,42.06
2022-11-16T13:52:22.150Z,40.95
2022-11-16T13:54:53.488Z,39.33
2022-11-16T13:57:25.474Z,39.08
2022-11-16T14:00:08.905Z,36.15
2022-11-16T14:02:38.209Z,34.27
2022-11-16T14:05:15.329Z,35.02
2022-11-16T14:07:46.942Z,35.57
2022-11-16T14:11:01.473Z,37.46
2022-11-16T14:13:39.667Z,41.18
2022-11-16T14:16:55.820Z,43.99
2022-11-16T14:19:54.904Z,46.96
2022-11-16T14:22:39.645Z,49.31
2022-11-16T14:25:15.505Z,50.96
2022-11-16T14:27:48.910Z,53.34
2022-11-16T14:30:20.638Z,54.21
2022-11-16T14:32:50.404Z,55.85
2022-11-16T14:35:28.711Z,56.64
2022-11-16T14:37:58.561Z,57.96
2022-11-16T14:40:26.949Z,58.54
2022-11-16T14:45:48.136Z,60.23
2022-11-16T14:48:18.675Z,60.77
2022-11-16T14:51:01.502Z,60.73
2022-11-16T14:53:30.330Z,61.71
2022-11-16T14:56:07.443Z,60.89
2022-11-16T14:58:35.823Z,60.33
2022-11-16T15:01:06.001Z,59.95
2022-11-16T15:03:36.468Z,58.50
2022-11-16T15:06:07.789Z,58.30
2022-11-16T15:08:38.498Z,58.16
2022-11-16T15:11:08.858Z,58.28
2022-11-16T15:13:37.028Z,58.15
2022-11-16T15:16:09.810Z,59.18
2022-11-16T15:18:37.745Z,58.84
2022-11-16T15:21:07.381Z,60.24
2022-11-16T15:24:02.065Z,60.99
2022-11-16T15:26:35.611Z,61.57
2022-11-16T15:29:03.669Z,62.71
2022-11-16T15:31:31.956Z,63.64
2022-11-16T15:34:00.194Z,64.38
2022-11-16T15:36:33.939Z,64.09
2022-11-16T15:39:02.294Z,64.43
2022-11-16T15:41:30.595Z,64.70
2022-11-16T15:44:16.359Z,65.10
2022-11-16T15:46:46.904Z,65.66
2022-11-16T15:49:25.783Z,65.92
2022-11-16T15:51:55.447Z,65.68
2022-11-16T15:54:27.133Z,65.90
2022-11-16T15:56:57.102Z,66.11
2022-11-16T15:59:28.568Z,66.32
2022-11-16T16:01:57.232Z,66.09
2022-11-16T16:04:25.984Z,66.13
2022-11-16T16:06:56.796Z,66.26
2022-11-16T16:09:27.519Z,66.32
2022-11-16T16:11:57.123Z,66.29
2022-11-16T16:14:28.873Z,66.79
2022-11-16T16:16:59.120Z,66.97
2022-11-16T16:19:33.739Z,67.30
2022-11-16T16:22:04.012Z,67.47
2022-11-16T16:24:41.106Z,67.29
2022-11-16T16:27:14.818Z,67.50
2022-11-16T16:29:43.218Z,67.76
2022-11-16T16:32:19.757Z,67.46
2022-11-16T16:34:47.681Z,67.54
2022-11-16T16:37:17.524Z,67.87
2022-11-16T16:39:45.756Z,68.61
2022-11-16T16:42:15.485Z,68.85
2022-11-16T16:44:44.787Z,68.88
2022-11-16T16:47:13.386Z,69.29
2022-11-16T16:49:41.547Z,69.50
2022-11-16T16:52:12.427Z,69.65
2022-11-16T16:54:42.263Z,69.56
2022-11-16T16:57:14.108Z,69.68
2022-11-16T16:59:42.408Z,69.61
2022-11-16T17:02:11.154Z,69.55
2022-11-16T17:04:39.231Z,69.53
2022-11-16T17:07:07.545Z,69.04
2022-11-16T17:09:35.427Z,69.34
2022-11-16T17:12:05.299Z,69.57
2022-11-16T17:14:33.231Z,69.35
2022-11-16T17:17:01.443Z,69.60
2022-11-16T17:19:29.893Z,69.65
2022-11-16T17:21:58.169Z,69.66
2022-11-16T17:24:26.055Z,69.61
2022-11-16T17:26:54.281Z,69.81
2022-11-16T17:29:23.672Z,69.53
2022-11-16T17:31:51.929Z,69.51
2022-11-16T17:34:19.921Z,69.85
2022-11-16T17:36:48.225Z,69.83
2022-11-16T17:39:16.683Z,69.80
2022-11-16T17:41:44.853Z,70.18
2022-11-16T17:44:17.188Z,69.96
2022-11-16T17:46:49.971Z,70.08
2022-11-16T17:49:17.971Z,70.09
2022-11-16T17:51:46.312Z,69.92
2022-11-16T17:54:14.440Z,70.30
2022-11-16T17:56:42.633Z,69.80
2022-11-16T17:59:10.655Z,69.74
2022-11-16T18:01:39.355Z,69.84
2022-11-16T18:04:08.834Z,69.95
2022-11-16T18:06:37.577Z,70.05
2022-11-16T18:09:05.659Z,70.00
2022-11-16T18:11:33.951Z,69.90
2022-11-16T18:14:05.384Z,70.21
2022-11-16T18:16:34.558Z,70.02
2022-11-16T18:19:04.082Z,70.29
2022-11-16T18:21:39.490Z,70.61
2022-11-16T18:24:08.166Z,70.80
2022-11-16T18:26:36.794Z,70.74
2022-11-16T18:29:05.215Z,70.35
2022-11-16T18:31:33.944Z,70.47
2022-11-16T18:34:02.719Z,69.88
2022-11-16T18:36:30.897Z,70.09
2022-11-16T18:39:00.228Z,69.71
2022-11-16T18:41:29.467Z,69.37
2022-11-16T18:43:58.501Z,69.65
2022-11-16T18:46:28.137Z,69.50
2022-11-16T18:48:56.504Z,69.10
2022-11-16T18:51:26.028Z,69.18
2022-11-16T18:53:54.512Z,69.16
2022-11-16T18:56:25.259Z,69.00
2022-11-16T18:58:53.769Z,69.02
2022-11-16T19:01:23.361Z,68.75
2022-11-16T19:03:51.845Z,68.40
2022-11-16T19:06:20.353Z,68.56
2022-11-16T19:08:55.355Z,68.73
2022-11-16T19:11:25.989Z,68.73
2022-11-16T19:13:55.330Z,68.93
2022-11-16T19:16:24.933Z,68.76
2022-11-16T19:18:53.119Z,68.83
2022-11-16T19:21:22.754Z,68.97
2022-11-16T19:23:52.812Z,69.03
2022-11-16T19:26:27.815Z,69.06
2022-11-16T19:28:56.023Z,69.32
2022-11-16T19:31:26.135Z,69.35
2022-11-16T19:33:55.233Z,69.15
2022-11-16T19:36:25.490Z,69.68
2022-11-16T19:38:54.963Z,69.58
2022-11-16T19:41:25.923Z,70.00
2022-11-16T19:43:59.512Z,69.97
2022-11-16T19:46:29.399Z,70.07
2022-11-16T19:48:58.184Z,70.11
2022-11-16T19:51:28.164Z,70.09
2022-11-16T19:53:56.503Z,70.11
2022-11-16T19:56:26.583Z,70.23
2022-11-16T19:58:55.002Z,70.17
2022-11-16T20:01:27.936Z,70.36
2022-11-16T20:03:57.505Z,70.37
2022-11-16T20:06:29.595Z,70.72
2022-11-16T20:09:00.724Z,70.99
2022-11-16T20:11:33.564Z,70.72
2022-11-16T20:14:02.855Z,70.97
2022-11-16T20:16:38.377Z,71.08
2022-11-16T20:19:07.496Z,71.40
2022-11-16T20:21:37.040Z,71.62
2022-11-16T20:24:07.260Z,71.83
2022-11-16T20:29:05.952Z,72.20
2022-11-16T20:31:34.638Z,72.11
2022-11-16T20:34:04.268Z,71.88
2022-11-16T20:36:33.955Z,71.73
2022-11-16T20:39:02.336Z,71.83
2022-11-16T20:41:32.022Z,71.65
2022-11-16T20:44:02.419Z,71.70
2022-11-16T20:46:31.824Z,71.94
2022-11-16T20:49:01.627Z,72.17
2022-11-16T20:51:30.416Z,74.23
2022-11-16T20:53:58.887Z,73.41
2022-11-16T20:56:30.042Z,73.52
2022-11-16T20:58:58.245Z,72.45
2022-11-16T21:01:31.446Z,71.04
2022-11-16T21:04:01.196Z,70.99
2022-11-16T21:06:29.917Z,70.70
2022-11-16T21:08:57.884Z,70.72
2022-11-16T21:11:28.785Z,70.40
2022-11-16T21:14:14.775Z,70.63
2022-11-16T21:16:44.704Z,70.82
2022-11-16T21:19:12.889Z,70.47
2022-11-16T21:21:41.431Z,70.80
2022-11-16T21:24:09.726Z,71.13
2022-11-16T21:26:38.090Z,71.30
2022-11-16T21:29:06.559Z,71.43
2022-11-16T21:31:36.663Z,71.36
2022-11-16T21:34:07.398Z,71.39
2022-11-16T21:36:36.029Z,71.54
2022-11-16T21:39:03.971Z,71.21
2022-11-16T21:41:32.542Z,71.01
2022-11-16T21:44:00.484Z,71.30
2022-11-16T21:46:28.807Z,71.46
2022-11-16T21:48:57.191Z,71.35
2022-11-16T21:51:27.808Z,71.36
2022-11-16T21:53:56.049Z,71.63
2022-11-16T21:56:25.432Z,72.05
2022-11-16T21:58:54.136Z,72.49
2022-11-16T22:01:23.367Z,72.56
2022-11-16T22:04:11.478Z,73.09
2022-11-16T22:06:58.530Z,73.34
2022-11-16T22:09:26.543Z,72.98
2022-11-16T22:11:54.768Z,73.30
2022-11-16T22:14:22.655Z,73.10
2022-11-16T22:16:50.610Z,73.27
2022-11-16T22:19:18.765Z,72.92
2022-11-16T22:21:48.009Z,72.93
2022-11-16T22:24:16.343Z,72.95
2022-11-16T22:26:44.240Z,72.67
2022-11-16T22:29:12.347Z,72.47
2022-11-16T22:31:40.413Z,72.72
2022-11-16T22:34:08.516Z,72.22
2022-11-16T22:36:36.433Z,72.03
2022-11-16T22:39:05.994Z,72.14
2022-11-16T22:41:33.875Z,71.95
2022-11-16T22:44:02.014Z,71.95
2022-11-16T22:46:29.904Z,71.88
2022-11-16T22:48:58.037Z,72.33
2022-11-16T22:51:27.010Z,71.85
2022-11-16T22:53:55.536Z,72.08
2022-11-16T22:56:25.024Z,71.90
2022-11-16T22:58:53.642Z,71.75
2022-11-16T23:01:22.038Z,71.69
2022-11-16T23:03:50.572Z,71.22
2022-11-16T23:06:18.556Z,71.29
2022-11-16T23:08:46.677Z,71.33
2022-11-16T23:11:34.039Z,71.22
2022-11-16T23:14:21.534Z,71.09
2022-11-16T23:16:50.486Z,71.53
2022-11-16T23:19:37.491Z,71.14
2022-11-16T23:22:23.257Z,71.51
2022-11-16T23:25:08.860Z,71.44
2022-11-16T23:27:40.932Z,71.49
2022-11-16T23:30:13.197Z,72.16
2022-11-16T23:32:42.229Z,72.52
2022-11-16T23:35:12.073Z,72.86
2022-11-16T23:37:53.976Z,73.22
2022-11-16T23:40:23.934Z,73.44
2022-11-16T23:43:10.115Z,74.07
2022-11-16T23:45:40.062Z,74.12
2022-11-16T23:48:08.982Z,74.41
2022-11-16T23:50:37.650Z,74.44
2022-11-16T23:53:06.698Z,75.14
2022-11-16T23:55:35.506Z,74.93
2022-11-16T23:58:03.458Z,75.52
